createdAt,value
2023-02-22T00:00:15.719Z,84.52
2023-02-22T00:01:16.028Z,84.62
2023-02-22T00:02:15.672Z,84.52
2023-02-22T00:03:15.735Z,84.42
2023-02-22T00:04:15.650Z,84.31
2023-02-22T00:05:15.622Z,84.11
2023-02-22T00:06:15.614Z,83.97
2023-02-22T00:07:15.659Z,83.80
2023-02-22T00:08:15.613Z,83.70
2023-02-22T00:09:15.572Z,83.59
2023-02-22T00:10:15.583Z,83.39
2023-02-22T00:11:15.887Z,83.18
2023-02-22T00:12:15.540Z,83.18
2023-02-22T00:13:15.554Z,83.18
2023-02-22T00:14:15.510Z,83.07
2023-02-22T00:15:15.490Z,82.97
2023-02-22T00:16:15.512Z,83.07
2023-02-22T00:17:15.503Z,82.97
2023-02-22T00:18:15.450Z,82.87
2023-02-22T00:19:15.473Z,82.77
2023-02-22T00:20:16.827Z,82.87
2023-02-22T00:21:15.850Z,82.87
2023-02-22T00:22:15.392Z,82.87
2023-02-22T00:23:15.379Z,82.77
2023-02-22T00:24:15.408Z,82.77
2023-02-22T00:25:15.407Z,82.77
2023-02-22T00:26:15.340Z,82.97
2023-02-22T00:27:15.340Z,82.97
2023-02-22T00:28:15.340Z,82.97
2023-02-22T00:29:15.351Z,82.97
2023-02-22T00:30:15.354Z,82.97
2023-02-22T00:31:15.788Z,82.97
2023-02-22T00:32:15.358Z,82.87
2023-02-22T00:33:15.291Z,82.77
2023-02-22T00:34:15.279Z,82.87
2023-02-22T00:35:15.236Z,82.97
2023-02-22T00:36:15.217Z,83.18
2023-02-22T00:37:15.248Z,83.49
2023-02-22T00:38:15.201Z,83.59
2023-02-22T00:39:15.202Z,83.80
2023-02-22T00:40:15.158Z,83.80
2023-02-22T00:41:15.457Z,83.90
2023-02-22T00:42:15.118Z,84.11
2023-02-22T00:43:15.181Z,84.11
2023-02-22T00:44:15.090Z,84.00
2023-02-22T00:45:15.097Z,84.05
2023-02-22T00:46:15.144Z,84.14
2023-02-22T00:47:15.062Z,84.14
2023-02-22T00:48:15.057Z,84.35
2023-02-22T00:49:15.078Z,84.35
2023-02-22T00:50:15.010Z,84.35
2023-02-22T00:51:15.424Z,84.45
2023-02-22T00:52:15.022Z,84.59
2023-02-22T00:53:14.976Z,84.80
2023-02-22T00:54:14.974Z,84.87
2023-02-22T00:55:14.981Z,84.87
2023-02-22T00:56:14.957Z,85.11
2023-02-22T00:57:16.610Z,85.17
2023-02-22T00:58:14.920Z,85.07
2023-02-22T00:59:14.911Z,85.07
2023-02-22T01:00:14.870Z,85.17
2023-02-22T01:01:15.340Z,85.07
2023-02-22T01:02:14.907Z,85.11
2023-02-22T01:03:14.857Z,85.11
2023-02-22T01:04:14.835Z,85.22
2023-02-22T01:05:14.858Z,85.52
2023-02-22T01:06:14.793Z,85.52
2023-02-22T01:07:21.994Z,85.52
2023-02-22T01:08:14.764Z,85.63
2023-02-22T01:09:14.796Z,85.63
2023-02-22T01:10:14.735Z,85.87
2023-02-22T01:11:15.087Z,85.83
2023-02-22T01:12:14.724Z,85.83
2023-02-22T01:13:14.763Z,85.73
2023-02-22T01:14:14.667Z,85.73
2023-02-22T01:15:14.653Z,85.73
2023-02-22T01:16:14.748Z,85.77
2023-02-22T01:17:14.623Z,85.87
2023-02-22T01:18:14.634Z,85.94
2023-02-22T01:19:14.683Z,86.08
2023-02-22T01:20:14.648Z,86.04
2023-02-22T01:21:14.954Z,85.94
2023-02-22T01:22:14.596Z,85.83
2023-02-22T01:23:14.571Z,85.83
2023-02-22T01:24:14.545Z,85.83
2023-02-22T01:25:14.594Z,85.63
2023-02-22T01:26:14.529Z,85.42
2023-02-22T01:27:14.514Z,85.42
2023-02-22T01:28:14.544Z,85.42
2023-02-22T01:29:14.473Z,85.31
2023-02-22T01:30:14.485Z,85.22
2023-02-22T01:31:14.775Z,85.22
2023-02-22T01:32:14.503Z,85.22
2023-02-22T01:33:14.452Z,85.31
2023-02-22T01:34:14.438Z,85.42
2023-02-22T01:35:14.571Z,85.42
2023-02-22T01:36:14.521Z,85.83
2023-02-22T01:37:14.380Z,85.83
2023-02-22T01:38:14.480Z,85.83
2023-02-22T01:39:14.334Z,85.87
2023-02-22T01:40:14.319Z,85.87
2023-02-22T01:41:14.885Z,85.87
2023-02-22T01:42:14.287Z,86.08
2023-02-22T01:43:14.277Z,86.08
2023-02-22T01:44:14.298Z,86.08
2023-02-22T01:45:14.246Z,86.18
2023-02-22T01:46:14.399Z,86.39
2023-02-22T01:47:14.312Z,86.39
2023-02-22T01:48:14.213Z,86.49
2023-02-22T01:49:14.196Z,86.39
2023-02-22T01:50:14.186Z,86.39
2023-02-22T01:51:14.449Z,86.29
2023-02-22T01:52:14.204Z,86.22
2023-02-22T01:53:14.222Z,86.22
2023-02-22T01:54:14.166Z,86.32
2023-02-22T01:55:14.133Z,86.32
2023-02-22T01:56:14.206Z,86.32
2023-02-22T01:57:14.133Z,86.32
2023-02-22T01:58:14.162Z,86.32
2023-02-22T01:59:14.092Z,86.32
2023-02-22T02:00:14.041Z,86.22
2023-02-22T02:01:14.235Z,86.12
2023-02-22T02:02:14.063Z,86.12
2023-02-22T02:03:13.983Z,86.02
2023-02-22T02:04:14.100Z,86.12
2023-02-22T02:05:14.281Z,85.91
2023-02-22T02:06:13.980Z,85.81
2023-02-22T02:07:13.993Z,86.02
2023-02-22T02:08:14.010Z,86.12
2023-02-22T02:09:13.920Z,86.22
2023-02-22T02:10:13.901Z,86.32
2023-02-22T02:11:14.044Z,86.32
2023-02-22T02:12:13.938Z,86.53
2023-02-22T02:13:13.867Z,86.43
2023-02-22T02:14:13.903Z,86.43
2023-02-22T02:15:13.838Z,86.57
2023-02-22T02:16:13.828Z,86.57
2023-02-22T02:17:14.001Z,86.57
2023-02-22T02:18:13.802Z,86.68
2023-02-22T02:19:13.784Z,86.88
2023-02-22T02:20:13.849Z,86.88
2023-02-22T02:21:14.012Z,86.98
2023-02-22T02:22:13.813Z,86.98
2023-02-22T02:23:13.811Z,86.98
2023-02-22T02:24:13.719Z,86.88
2023-02-22T02:25:13.784Z,86.98
2023-02-22T02:26:13.722Z,86.88
2023-02-22T02:27:13.683Z,87.08
2023-02-22T02:28:13.662Z,87.08
2023-02-22T02:29:13.736Z,87.08
2023-02-22T02:30:13.668Z,87.08
2023-02-22T02:31:13.673Z,87.19
2023-02-22T02:32:13.765Z,87.19
2023-02-22T02:33:13.592Z,87.29
2023-02-22T02:34:13.581Z,87.23
2023-02-22T02:35:13.670Z,87.34
2023-02-22T02:36:13.560Z,87.54
2023-02-22T02:37:13.543Z,87.65
2023-02-22T02:38:13.535Z,87.65
2023-02-22T02:39:13.512Z,87.74
2023-02-22T02:40:13.532Z,87.74
2023-02-22T02:41:13.535Z,87.54
2023-02-22T02:42:13.499Z,87.54
2023-02-22T02:43:13.487Z,87.65
2023-02-22T02:44:13.518Z,87.65
2023-02-22T02:45:13.441Z,87.74
2023-02-22T02:46:13.421Z,87.65
2023-02-22T02:47:13.512Z,87.74
2023-02-22T02:48:13.390Z,87.85
2023-02-22T02:49:13.380Z,87.85
2023-02-22T02:50:13.426Z,87.74
2023-02-22T02:51:13.353Z,87.74
2023-02-22T02:52:13.374Z,87.65
2023-02-22T02:53:13.430Z,87.54
2023-02-22T02:54:13.316Z,87.54
2023-02-22T02:55:13.351Z,87.65
2023-02-22T02:56:13.340Z,87.65
2023-02-22T02:57:13.291Z,87.54
2023-02-22T02:58:13.270Z,87.34
2023-02-22T02:59:13.275Z,87.44
2023-02-22T03:00:13.249Z,87.44
2023-02-22T03:01:13.301Z,87.44
2023-02-22T03:02:13.307Z,87.44
2023-02-22T03:03:13.211Z,87.34
2023-02-22T03:04:13.190Z,87.34
2023-02-22T03:05:13.215Z,87.23
2023-02-22T03:06:13.190Z,87.23
2023-02-22T03:07:13.195Z,87.34
2023-02-22T03:08:13.177Z,87.34
2023-02-22T03:09:13.127Z,87.23
2023-02-22T03:10:13.140Z,87.02
2023-02-22T03:11:13.144Z,87.13
2023-02-22T03:12:13.088Z,86.92
2023-02-22T03:13:13.098Z,86.82
2023-02-22T03:14:13.114Z,86.71
2023-02-22T03:15:13.060Z,86.71
2023-02-22T03:16:13.103Z,86.82
2023-02-22T03:17:13.065Z,86.92
2023-02-22T03:18:13.005Z,86.92
2023-02-22T03:19:13.061Z,86.82
2023-02-22T03:20:13.006Z,86.92
2023-02-22T03:21:12.997Z,86.92
2023-02-22T03:22:12.948Z,86.92
2023-02-22T03:23:12.970Z,86.82
2023-02-22T03:24:12.946Z,86.82
2023-02-22T03:25:12.956Z,86.82
2023-02-22T03:26:12.985Z,86.71
2023-02-22T03:27:12.919Z,86.92
2023-02-22T03:28:12.897Z,87.02
2023-02-22T03:29:12.956Z,86.92
2023-02-22T03:30:12.876Z,86.96
2023-02-22T03:31:12.911Z,87.17
2023-02-22T03:32:12.908Z,87.17
2023-02-22T03:33:12.821Z,87.27
2023-02-22T03:34:12.789Z,87.27
2023-02-22T03:35:12.824Z,87.27
2023-02-22T03:36:12.800Z,87.27
2023-02-22T03:37:12.910Z,87.37
2023-02-22T03:38:12.880Z,87.37
2023-02-22T03:39:12.748Z,87.27
2023-02-22T03:40:12.731Z,87.27
2023-02-22T03:41:12.742Z,87.27
2023-02-22T03:42:12.717Z,87.17
2023-02-22T03:43:12.715Z,87.23
2023-02-22T03:44:12.708Z,87.13
2023-02-22T03:45:12.667Z,87.02
2023-02-22T03:46:12.676Z,86.82
2023-02-22T03:47:12.773Z,86.86
2023-02-22T03:48:12.680Z,86.86
2023-02-22T03:49:12.726Z,86.96
2023-02-22T03:50:12.639Z,86.96
2023-02-22T03:51:13.036Z,87.07
2023-02-22T03:52:12.590Z,87.07
2023-02-22T03:53:12.589Z,87.17
2023-02-22T03:54:12.547Z,87.17
2023-02-22T03:55:12.612Z,87.17
2023-02-22T03:56:12.566Z,87.27
2023-02-22T03:57:12.533Z,87.37
2023-02-22T03:58:12.493Z,87.52
2023-02-22T03:59:12.514Z,87.62
2023-02-22T04:00:12.460Z,87.83
2023-02-22T04:01:12.533Z,87.83
2023-02-22T04:02:12.480Z,87.83
2023-02-22T04:03:12.459Z,87.83
2023-02-22T04:04:12.414Z,87.83
2023-02-22T04:05:12.423Z,87.73
2023-02-22T04:06:12.384Z,87.73
2023-02-22T04:07:12.414Z,87.73
2023-02-22T04:08:12.414Z,87.73
2023-02-22T04:09:12.379Z,87.73
2023-02-22T04:10:12.326Z,87.83
2023-02-22T04:11:12.415Z,87.83
2023-02-22T04:12:12.304Z,87.93
2023-02-22T04:13:12.350Z,87.93
2023-02-22T04:14:12.425Z,87.83
2023-02-22T04:15:12.291Z,87.83
2023-02-22T04:16:12.280Z,87.83
2023-02-22T04:17:12.359Z,87.73
2023-02-22T04:18:12.261Z,87.62
2023-02-22T04:19:12.274Z,87.73
2023-02-22T04:20:12.377Z,87.73
2023-02-22T04:21:12.201Z,87.93
2023-02-22T04:22:12.231Z,88.07
2023-02-22T04:23:12.325Z,88.14
2023-02-22T04:24:12.196Z,88.04
2023-02-22T04:25:12.244Z,88.04
2023-02-22T04:26:12.338Z,88.04
2023-02-22T04:27:12.135Z,87.93
2023-02-22T04:28:12.162Z,87.93
2023-02-22T04:29:12.206Z,88.04
2023-02-22T04:30:12.087Z,88.04
2023-02-22T04:31:12.096Z,87.83
2023-02-22T04:32:12.310Z,87.83
2023-02-22T04:33:12.052Z,87.73
2023-02-22T04:34:12.067Z,87.73
2023-02-22T04:35:12.080Z,87.52
2023-02-22T04:36:12.032Z,87.62
2023-02-22T04:37:12.024Z,87.52
2023-02-22T04:38:12.034Z,87.52
2023-02-22T04:39:11.970Z,87.52
2023-02-22T04:40:12.011Z,87.52
2023-02-22T04:41:11.982Z,87.52
2023-02-22T04:42:11.920Z,87.52
2023-02-22T04:43:11.958Z,87.62
2023-02-22T04:44:11.942Z,87.52
2023-02-22T04:45:11.929Z,87.62
2023-02-22T04:46:11.935Z,87.52
2023-02-22T04:47:11.869Z,87.52
2023-02-22T04:48:11.866Z,87.41
2023-02-22T04:49:11.866Z,87.52
2023-02-22T04:50:11.880Z,87.52
2023-02-22T04:51:11.876Z,87.52
2023-02-22T04:52:11.864Z,87.62
2023-02-22T04:53:11.789Z,87.52
2023-02-22T04:54:11.829Z,87.62
2023-02-22T04:55:11.813Z,87.52
2023-02-22T04:56:11.872Z,87.62
2023-02-22T04:57:11.731Z,87.52
2023-02-22T04:58:11.726Z,87.62
2023-02-22T04:59:11.703Z,87.73
2023-02-22T05:00:11.737Z,87.73
2023-02-22T05:01:11.732Z,87.83
2023-02-22T05:02:11.716Z,87.73
2023-02-22T05:03:11.680Z,87.83
2023-02-22T05:04:11.658Z,87.87
2023-02-22T05:05:11.677Z,87.97
2023-02-22T05:06:11.666Z,87.97
2023-02-22T05:07:11.616Z,88.07
2023-02-22T05:08:11.669Z,87.97
2023-02-22T05:09:11.595Z,88.07
2023-02-22T05:10:11.605Z,88.07
2023-02-22T05:11:11.589Z,88.07
2023-02-22T05:12:11.586Z,88.07
2023-02-22T05:13:11.525Z,87.97
2023-02-22T05:14:11.528Z,87.97
2023-02-22T05:15:11.538Z,87.87
2023-02-22T05:16:11.542Z,87.97
2023-02-22T05:17:11.466Z,87.97
2023-02-22T05:18:11.493Z,87.97
2023-02-22T05:19:11.464Z,87.97
2023-02-22T05:20:11.463Z,88.07
2023-02-22T05:21:11.425Z,88.07
2023-02-22T05:22:11.468Z,87.97
2023-02-22T05:23:11.441Z,88.07
2023-02-22T05:24:11.381Z,88.07
2023-02-22T05:25:11.417Z,87.97
2023-02-22T05:26:11.808Z,87.87
2023-02-22T05:27:11.354Z,87.87
2023-02-22T05:28:11.358Z,87.87
2023-02-22T05:29:11.333Z,87.97
2023-02-22T05:30:11.324Z,87.97
2023-02-22T05:31:11.358Z,87.87
2023-02-22T05:32:11.369Z,87.87
2023-02-22T05:33:11.269Z,87.76
2023-02-22T05:34:11.310Z,87.76
2023-02-22T05:35:11.264Z,87.76
2023-02-22T05:36:11.243Z,87.76
2023-02-22T05:37:11.214Z,87.76
2023-02-22T05:38:11.282Z,87.76
2023-02-22T05:39:11.271Z,87.66
2023-02-22T05:40:11.283Z,87.76
2023-02-22T05:41:11.173Z,87.66
2023-02-22T05:42:11.162Z,87.70
2023-02-22T05:43:11.179Z,87.66
2023-02-22T05:44:11.253Z,87.76
2023-02-22T05:45:11.150Z,87.76
2023-02-22T05:46:11.231Z,87.76
2023-02-22T05:47:11.098Z,87.66
2023-02-22T05:48:11.077Z,87.66
2023-02-22T05:49:11.108Z,87.56
2023-02-22T05:50:11.105Z,87.56
2023-02-22T05:51:11.086Z,87.46
2023-02-22T05:52:11.028Z,87.35
2023-02-22T05:53:11.003Z,87.46
2023-02-22T05:54:10.993Z,87.49
2023-02-22T05:55:10.993Z,87.60
2023-02-22T05:56:11.000Z,87.60
2023-02-22T05:57:10.951Z,87.60
2023-02-22T05:58:10.985Z,87.56
2023-02-22T05:59:10.920Z,87.46
2023-02-22T06:00:10.904Z,87.56
2023-02-22T06:01:10.902Z,87.46
2023-02-22T06:02:11.012Z,87.46
2023-02-22T06:03:10.876Z,87.46
2023-02-22T06:04:10.899Z,87.46
2023-02-22T06:05:10.961Z,87.56
2023-02-22T06:06:10.817Z,87.56
2023-02-22T06:07:10.816Z,87.56
2023-02-22T06:08:10.880Z,87.66
2023-02-22T06:09:10.812Z,87.76
2023-02-22T06:10:10.776Z,87.76
2023-02-22T06:11:10.783Z,87.76
2023-02-22T06:12:10.775Z,87.76
2023-02-22T06:13:10.745Z,87.81
2023-02-22T06:14:10.804Z,88.01
2023-02-22T06:15:10.716Z,88.01
2023-02-22T06:16:10.789Z,87.81
2023-02-22T06:17:10.693Z,87.91
2023-02-22T06:18:10.734Z,88.01
2023-02-22T06:19:10.659Z,88.22
2023-02-22T06:20:10.704Z,88.22
2023-02-22T06:21:10.648Z,88.18
2023-02-22T06:22:10.640Z,87.97
2023-02-22T06:23:10.614Z,87.87
2023-02-22T06:24:10.602Z,87.76
2023-02-22T06:25:10.623Z,87.56
2023-02-22T06:26:10.612Z,87.46
2023-02-22T06:27:10.546Z,87.56
2023-02-22T06:28:10.544Z,87.56
2023-02-22T06:29:10.538Z,87.56
2023-02-22T06:30:12.929Z,87.56
2023-02-22T06:31:10.552Z,87.46
2023-02-22T06:32:10.690Z,87.56
2023-02-22T06:33:10.465Z,87.46
2023-02-22T06:34:10.505Z,87.46
2023-02-22T06:35:10.492Z,87.35
2023-02-22T06:36:10.454Z,87.35
2023-02-22T06:37:10.431Z,87.35
2023-02-22T06:38:10.482Z,87.25
2023-02-22T06:39:10.384Z,87.15
2023-02-22T06:40:10.370Z,87.15
2023-02-22T06:41:10.398Z,87.10
2023-02-22T06:42:10.447Z,87.04
2023-02-22T06:43:10.338Z,86.94
2023-02-22T06:44:10.468Z,86.94
2023-02-22T06:45:10.392Z,86.94
2023-02-22T06:46:10.410Z,86.94
2023-02-22T06:47:10.355Z,87.00
2023-02-22T06:48:10.278Z,86.83
2023-02-22T06:49:10.265Z,86.90
2023-02-22T06:50:10.361Z,86.90
2023-02-22T06:51:10.238Z,86.90
2023-02-22T06:52:10.237Z,86.79
2023-02-22T06:53:10.308Z,86.69
2023-02-22T06:54:10.210Z,86.59
2023-02-22T06:55:10.223Z,86.49
2023-02-22T06:56:10.241Z,86.49
2023-02-22T06:57:10.219Z,86.59
2023-02-22T06:58:10.162Z,86.38
2023-02-22T06:59:10.138Z,86.49
2023-02-22T07:00:10.142Z,86.49
2023-02-22T07:01:10.204Z,86.34
2023-02-22T07:02:10.252Z,86.18
2023-02-22T07:03:10.159Z,86.34
2023-02-22T07:04:10.118Z,86.13
2023-02-22T07:05:10.066Z,86.13
2023-02-22T07:06:10.041Z,86.13
2023-02-22T07:07:10.059Z,86.13
2023-02-22T07:08:10.052Z,86.03
2023-02-22T07:09:10.040Z,85.93
2023-02-22T07:10:10.040Z,85.83
2023-02-22T07:11:09.985Z,85.83
2023-02-22T07:12:09.952Z,85.62
2023-02-22T07:13:10.005Z,85.72
2023-02-22T07:14:10.026Z,85.62
2023-02-22T07:15:09.958Z,85.62
2023-02-22T07:16:09.981Z,85.83
2023-02-22T07:17:09.915Z,85.68
2023-02-22T07:18:09.888Z,85.47
2023-02-22T07:19:09.861Z,85.37
2023-02-22T07:20:09.949Z,85.37
2023-02-22T07:21:09.840Z,85.37
2023-02-22T07:22:09.843Z,85.27
2023-02-22T07:23:09.813Z,85.17
2023-02-22T07:24:09.826Z,84.96
2023-02-22T07:25:09.789Z,85.06
2023-02-22T07:26:09.854Z,85.06
2023-02-22T07:27:09.798Z,84.96
2023-02-22T07:28:09.750Z,84.86
2023-02-22T07:29:09.721Z,84.86
2023-02-22T07:30:09.754Z,84.65
2023-02-22T07:31:09.788Z,84.86
2023-02-22T07:32:09.829Z,84.65
2023-02-22T07:33:09.799Z,84.65
2023-02-22T07:34:09.704Z,84.51
2023-02-22T07:35:09.669Z,84.41
2023-02-22T07:36:09.671Z,84.41
2023-02-22T07:37:09.650Z,84.41
2023-02-22T07:38:09.677Z,84.30
2023-02-22T07:39:09.649Z,84.20
2023-02-22T07:40:09.591Z,83.99
2023-02-22T07:41:09.621Z,83.78
2023-02-22T07:42:09.585Z,83.78
2023-02-22T07:43:09.630Z,83.68
2023-02-22T07:44:09.570Z,83.68
2023-02-22T07:45:09.528Z,83.64
2023-02-22T07:46:09.542Z,83.44
2023-02-22T07:47:09.519Z,83.33
2023-02-22T07:48:09.503Z,83.33
2023-02-22T07:49:09.451Z,83.13
2023-02-22T07:50:09.525Z,83.03
2023-02-22T07:51:09.428Z,82.89
2023-02-22T07:52:09.451Z,82.68
2023-02-22T07:53:09.480Z,82.57
2023-02-22T07:54:09.438Z,82.57
2023-02-22T07:55:09.376Z,82.57
2023-02-22T07:56:09.425Z,82.57
2023-02-22T07:57:09.395Z,82.47
2023-02-22T07:58:09.368Z,82.37
2023-02-22T07:59:09.320Z,82.23
2023-02-22T08:00:09.341Z,82.23
2023-02-22T08:01:09.478Z,82.12
2023-02-22T08:02:09.456Z,81.81
2023-02-22T08:03:09.282Z,81.71
2023-02-22T08:04:09.285Z,82.12
2023-02-22T08:05:09.268Z,82.12
2023-02-22T08:06:09.270Z,82.12
2023-02-22T08:07:09.297Z,82.23
2023-02-22T08:08:09.279Z,82.37
2023-02-22T08:09:10.032Z,82.68
2023-02-22T08:10:09.265Z,82.98
2023-02-22T08:11:09.172Z,83.09
2023-02-22T08:12:09.158Z,83.19
2023-02-22T08:13:09.213Z,83.19
2023-02-22T08:14:10.381Z,82.95
2023-02-22T08:15:09.119Z,82.23
2023-02-22T08:16:09.127Z,82.19
2023-02-22T08:17:09.200Z,81.92
2023-02-22T08:18:09.119Z,82.02
2023-02-22T08:19:09.070Z,81.92
2023-02-22T08:20:09.089Z,81.61
2023-02-22T08:21:09.118Z,81.71
2023-02-22T08:22:09.049Z,81.81
2023-02-22T08:23:09.051Z,82.12
2023-02-22T08:24:12.677Z,82.09
2023-02-22T08:25:08.978Z,81.26
2023-02-22T08:26:09.058Z,81.05
2023-02-22T08:27:08.975Z,81.26
2023-02-22T08:28:08.942Z,81.37
2023-02-22T08:29:08.917Z,81.37
2023-02-22T08:30:09.005Z,81.26
2023-02-22T08:31:08.919Z,81.33
2023-02-22T08:32:09.136Z,80.91
2023-02-22T08:33:08.988Z,80.95
2023-02-22T08:34:08.927Z,81.02
2023-02-22T08:35:08.836Z,80.88
2023-02-22T08:36:08.989Z,80.36
2023-02-22T08:37:08.806Z,79.75
2023-02-22T08:38:08.853Z,79.54
2023-02-22T08:39:08.808Z,79.50
2023-02-22T08:40:08.787Z,79.30
2023-02-22T08:41:08.961Z,79.71
2023-02-22T08:42:08.760Z,79.40
2023-02-22T08:43:08.783Z,79.19
2023-02-22T08:44:08.773Z,78.78
2023-02-22T08:45:08.699Z,78.54
2023-02-22T08:46:08.848Z,78.64
2023-02-22T08:47:08.731Z,78.44
2023-02-22T08:48:08.702Z,78.13
2023-02-22T08:49:08.683Z,78.13
2023-02-22T08:50:08.706Z,78.03
2023-02-22T08:51:08.624Z,77.89
2023-02-22T08:52:08.616Z,77.48
2023-02-22T08:53:08.613Z,77.44
2023-02-22T08:54:08.587Z,77.65
2023-02-22T08:55:08.584Z,77.68
2023-02-22T08:56:08.784Z,77.68
2023-02-22T08:57:08.530Z,77.78
2023-02-22T08:58:08.529Z,77.65
2023-02-22T08:59:08.519Z,77.44
2023-02-22T09:00:08.528Z,77.23
2023-02-22T09:01:08.498Z,77.00
2023-02-22T09:02:08.535Z,76.79
2023-02-22T09:03:08.491Z,76.65
2023-02-22T09:04:08.487Z,76.34
2023-02-22T09:05:08.437Z,76.04
2023-02-22T09:06:08.480Z,75.79
2023-02-22T09:07:08.428Z,75.49
2023-02-22T09:08:08.527Z,75.08
2023-02-22T09:09:08.382Z,74.98
2023-02-22T09:10:08.385Z,74.77
2023-02-22T09:11:08.368Z,74.43
2023-02-22T09:12:08.380Z,74.12
2023-02-22T09:13:08.341Z,73.91
2023-02-22T09:14:08.348Z,73.81
2023-02-22T09:15:08.306Z,73.81
2023-02-22T09:16:08.518Z,73.61
2023-02-22T09:17:08.270Z,73.50
2023-02-22T09:18:08.381Z,73.36
2023-02-22T09:19:08.264Z,73.36
2023-02-22T09:20:08.255Z,73.16
2023-02-22T09:21:08.271Z,73.06
2023-02-22T09:22:08.217Z,72.96
2023-02-22T09:23:08.195Z,72.86
2023-02-22T09:24:08.208Z,72.75
2023-02-22T09:25:16.824Z,72.72
2023-02-22T09:26:09.196Z,72.52
2023-02-22T09:27:08.136Z,72.11
2023-02-22T09:28:08.208Z,72.11
2023-02-22T09:29:08.133Z,71.86
2023-02-22T09:30:08.175Z,71.77
2023-02-22T09:31:08.139Z,71.77
2023-02-22T09:32:08.323Z,71.45
2023-02-22T09:33:08.175Z,71.36
2023-02-22T09:34:08.111Z,71.32
2023-02-22T09:35:08.026Z,71.01
2023-02-22T09:36:08.034Z,71.01
2023-02-22T09:37:08.028Z,70.91
2023-02-22T09:38:08.025Z,70.67
2023-02-22T09:39:07.983Z,70.67
2023-02-22T09:40:07.994Z,70.57
2023-02-22T09:41:07.943Z,70.57
2023-02-22T09:42:08.033Z,70.57
2023-02-22T09:43:07.994Z,70.34
2023-02-22T09:44:07.946Z,70.23
2023-02-22T09:45:07.905Z,70.13
2023-02-22T09:46:08.022Z,69.93
2023-02-22T09:47:07.856Z,69.69
2023-02-22T09:48:21.366Z,69.59
2023-02-22T09:49:08.935Z,69.38
2023-02-22T09:50:07.852Z,69.07
2023-02-22T09:51:07.825Z,68.97
2023-02-22T09:52:07.814Z,69.07
2023-02-22T09:53:07.782Z,68.97
2023-02-22T09:54:07.783Z,68.74
2023-02-22T09:55:07.899Z,68.74
2023-02-22T09:56:07.749Z,68.63
2023-02-22T09:57:07.728Z,68.63
2023-02-22T09:58:07.740Z,68.74
2023-02-22T09:59:07.765Z,68.63
2023-02-22T10:00:07.694Z,68.43
2023-02-22T10:01:07.811Z,68.43
2023-02-22T10:02:07.676Z,69.01
2023-02-22T10:03:07.686Z,68.80
2023-02-22T10:04:07.684Z,68.60
2023-02-22T10:05:07.658Z,68.30
2023-02-22T10:06:07.607Z,68.30
2023-02-22T10:07:07.647Z,68.30
2023-02-22T10:08:07.589Z,67.96
2023-02-22T10:09:07.639Z,68.26
2023-02-22T10:10:07.573Z,68.26
2023-02-22T10:11:07.557Z,68.26
2023-02-22T10:12:07.540Z,67.76
2023-02-22T10:13:07.552Z,67.55
2023-02-22T10:14:07.523Z,67.76
2023-02-22T10:15:07.478Z,67.85
2023-02-22T10:16:07.545Z,67.62
2023-02-22T10:17:07.476Z,67.52
2023-02-22T10:18:07.464Z,67.08
2023-02-22T10:19:07.570Z,66.97
2023-02-22T10:20:07.425Z,66.27
2023-02-22T10:21:07.406Z,65.75
2023-02-22T10:22:07.416Z,65.45
2023-02-22T10:23:07.664Z,65.31
2023-02-22T10:24:07.365Z,64.90
2023-02-22T10:25:09.561Z,63.38
2023-02-22T10:26:07.345Z,63.58
2023-02-22T10:27:07.307Z,63.65
2023-02-22T10:28:07.358Z,62.33
2023-02-22T10:29:07.360Z,62.02
2023-02-22T10:30:18.892Z,62.13
2023-02-22T10:31:08.528Z,61.99
2023-02-22T10:32:07.337Z,61.59
2023-02-22T10:33:07.237Z,61.49
2023-02-22T10:34:07.256Z,61.38
2023-02-22T10:35:07.261Z,61.38
2023-02-22T10:36:07.188Z,61.49
2023-02-22T10:37:07.250Z,61.59
2023-02-22T10:38:07.181Z,61.08
2023-02-22T10:39:07.177Z,60.88
2023-02-22T10:40:07.197Z,60.75
2023-02-22T10:41:07.154Z,60.44
2023-02-22T10:42:07.153Z,60.14
2023-02-22T10:43:07.177Z,60.14
2023-02-22T10:44:07.087Z,60.34
2023-02-22T10:45:07.072Z,60.64
2023-02-22T10:46:07.217Z,60.41
2023-02-22T10:47:07.062Z,60.41
2023-02-22T10:48:07.060Z,60.41
2023-02-22T10:49:07.095Z,60.31
2023-02-22T10:50:07.009Z,60.21
2023-02-22T10:51:07.010Z,60.00
2023-02-22T10:52:07.016Z,59.88
2023-02-22T10:53:06.979Z,59.67
2023-02-22T10:54:06.980Z,59.34
2023-02-22T10:55:15.315Z,59.03
2023-02-22T10:56:08.011Z,58.94
2023-02-22T10:57:06.999Z,58.70
2023-02-22T10:58:06.966Z,58.50
2023-02-22T10:59:06.890Z,58.29
2023-02-22T11:00:06.893Z,58.09
2023-02-22T11:01:06.962Z,58.29
2023-02-22T11:02:06.861Z,58.40
2023-02-22T11:03:06.850Z,58.29
2023-02-22T11:04:06.872Z,58.27
2023-02-22T11:05:06.902Z,57.97
2023-02-22T11:06:07.202Z,57.66
2023-02-22T11:07:06.825Z,57.76
2023-02-22T11:08:06.788Z,57.89
2023-02-22T11:09:06.779Z,58.29
2023-02-22T11:10:06.801Z,58.20
2023-02-22T11:11:06.719Z,58.09
2023-02-22T11:12:06.734Z,58.29
2023-02-22T11:13:06.756Z,58.20
2023-02-22T11:14:06.858Z,58.40
2023-02-22T11:15:06.704Z,58.40
2023-02-22T11:16:06.679Z,58.29
2023-02-22T11:17:06.695Z,58.50
2023-02-22T11:18:08.640Z,58.29
2023-02-22T11:19:06.662Z,58.29
2023-02-22T11:20:06.619Z,58.40
2023-02-22T11:21:06.577Z,59.01
2023-02-22T11:22:06.577Z,58.80
2023-02-22T11:23:06.608Z,58.40
2023-02-22T11:24:06.576Z,58.50
2023-02-22T11:25:06.624Z,58.40
2023-02-22T11:26:06.542Z,58.29
2023-02-22T11:27:06.496Z,58.06
2023-02-22T11:28:06.501Z,57.66
2023-02-22T11:29:06.522Z,57.66
2023-02-22T11:30:06.541Z,57.53
2023-02-22T11:31:06.594Z,57.56
2023-02-22T11:32:06.454Z,57.56
2023-02-22T11:33:06.480Z,57.53
2023-02-22T11:34:06.452Z,57.33
2023-02-22T11:35:09.304Z,57.33
2023-02-22T11:36:06.387Z,57.33
2023-02-22T11:37:06.424Z,57.33
2023-02-22T11:38:06.389Z,56.99
2023-02-22T11:39:06.351Z,56.79
2023-02-22T11:40:06.363Z,56.57
2023-02-22T11:41:06.316Z,56.26
2023-02-22T11:42:06.305Z,55.96
2023-02-22T11:43:06.337Z,55.96
2023-02-22T11:44:06.266Z,56.39
2023-02-22T11:45:06.254Z,56.70
2023-02-22T11:46:06.356Z,56.79
2023-02-22T11:47:06.267Z,56.99
2023-02-22T11:48:06.252Z,56.90
2023-02-22T11:49:06.237Z,56.57
2023-02-22T11:50:06.174Z,56.46
2023-02-22T11:51:06.188Z,56.36
2023-02-22T11:52:06.226Z,56.90
2023-02-22T11:53:06.309Z,57.20
2023-02-22T11:54:06.201Z,57.10
2023-02-22T11:55:06.161Z,56.87
2023-02-22T11:56:06.196Z,56.57
2023-02-22T11:57:06.143Z,56.57
2023-02-22T11:58:06.134Z,56.77
2023-02-22T11:59:06.133Z,56.57
2023-02-22T12:00:06.099Z,56.44
2023-02-22T12:01:06.111Z,56.23
2023-02-22T12:02:06.098Z,55.80
2023-02-22T12:03:06.038Z,55.50
2023-02-22T12:04:06.110Z,55.50
2023-02-22T12:05:06.167Z,55.70
2023-02-22T12:06:05.994Z,56.13
2023-02-22T12:07:05.984Z,56.23
2023-02-22T12:08:18.895Z,56.01
2023-02-22T12:09:06.942Z,55.80
2023-02-22T12:10:05.923Z,55.47
2023-02-22T12:11:05.932Z,55.37
2023-02-22T12:12:05.963Z,55.37
2023-02-22T12:13:05.925Z,55.04
2023-02-22T12:14:05.875Z,55.24
2023-02-22T12:15:05.909Z,55.04
2023-02-22T12:16:06.007Z,54.94
2023-02-22T12:17:05.852Z,54.82
2023-02-22T12:18:05.854Z,54.82
2023-02-22T12:19:05.832Z,54.91
2023-02-22T12:20:05.823Z,54.82
2023-02-22T12:21:05.764Z,54.82
2023-02-22T12:22:05.753Z,54.82
2023-02-22T12:23:05.764Z,55.04
2023-02-22T12:24:05.730Z,55.24
2023-02-22T12:25:10.117Z,55.35
2023-02-22T12:26:05.733Z,55.35
2023-02-22T12:27:06.778Z,55.44
2023-02-22T12:28:10.105Z,55.55
2023-02-22T12:29:06.655Z,55.57
2023-02-22T12:30:05.627Z,55.88
2023-02-22T12:31:05.699Z,55.88
2023-02-22T12:32:05.682Z,56.28
2023-02-22T12:33:06.449Z,56.28
2023-02-22T12:34:05.664Z,56.28
2023-02-22T12:35:05.693Z,56.59
2023-02-22T12:36:05.565Z,56.36
2023-02-22T12:37:05.571Z,56.05
2023-02-22T12:38:05.538Z,55.75
2023-02-22T12:39:07.395Z,55.73
2023-02-22T12:40:05.513Z,55.62
2023-02-22T12:41:05.602Z,55.62
2023-02-22T12:42:05.511Z,55.73
2023-02-22T12:43:05.490Z,56.15
2023-02-22T12:44:05.549Z,56.36
2023-02-22T12:45:06.985Z,56.99
2023-02-22T12:46:05.572Z,57.53
2023-02-22T12:47:05.443Z,57.83
2023-02-22T12:48:05.399Z,58.13
2023-02-22T12:49:05.589Z,58.13
2023-02-22T12:50:05.391Z,58.64
2023-02-22T12:51:05.378Z,58.64
2023-02-22T12:52:20.578Z,58.11